Freedom of the Seas — C6UZ7 — position and weather

sailwx.info

Track history (hours):
 
Tides and Currents Weather Stations Pressure Air Temp Water Temp Dewpoint Dewpoint Depression Visibility Wind Speed Wind Dir Waves Ship Positions

Freedom of the Seas

Last reported at 2017-Jul-21 21:41 UTC. Time now 2017-Jul-22 12:38 UTC.
Position N 40°42' E 012°37'.

Length 339 m; draft 9 m.

Type: Passenger vessel. MMSI: 309906000.

Date/timePositionNaut miles runAvg speedWind from/ knotsBaromVisibWave heightAir tempDewpointWater temp
2017-Jul-21 21:41N 40°42' E 012°37'317.6
2017-Jul-21 21:30N 40°40' E 012°40'917.6
2017-Jul-21 21:00N 40°37' E 012°51'917.4
2017-Jul-21 20:30N 40°35' E 013°02'1117.4
2017-Jul-21 19:54N 40°34' E 013°16'717.5
2017-Jul-21 19:31N 40°34' E 013°25'917.4
2017-Jul-21 19:01N 40°34' E 013°37'917.4
2017-Jul-21 18:31N 40°34' E 013°48'917.4
2017-Jul-21 18:01N 40°36' E 013°59'917.3
2017-Jul-21 17:31N 40°40' E 014°09'816.6
2017-Jul-21 17:01N 40°47' E 014°15'3 6.3
2017-Jul-21 16:31N 40°50' E 014°16'0 0.0
2017-Jul-21 16:00N 40°50' E 014°16'0 0.0
2017-Jul-21 15:24N 40°50' E 014°16'0 0.0
2017-Jul-21 15:00N 40°50' E 014°16'0 0.0
2017-Jul-21 14:30N 40°50' E 014°16'0 0.0
2017-Jul-21 14:00N 40°50' E 014°16'0 0.0
2017-Jul-21 13:30N 40°50' E 014°16'0 0.0
2017-Jul-21 13:00N 40°50' E 014°16'0 0.0
2017-Jul-21 12:30N 40°50' E 014°16'0 0.0
2017-Jul-21 12:00N 40°50' E 014°16'0 0.0
2017-Jul-21 11:30N 40°50' E 014°16'0 0.0
2017-Jul-21 11:00N 40°50' E 014°16'0 0.0
2017-Jul-21 10:30N 40°50' E 014°16'0 0.0
2017-Jul-21 10:00N 40°50' E 014°16'0 0.0
2017-Jul-21 09:30N 40°50' E 014°16'0 0.0
2017-Jul-21 09:00N 40°50' E 014°16'0 0.0
2017-Jul-21 08:30N 40°50' E 014°16'0 0.0
2017-Jul-21 08:00N 40°50' E 014°16'0 0.0
2017-Jul-21 07:30N 40°50' E 014°16'0 0.0
2017-Jul-21 06:54N 40°50' E 014°16'0 0.0
2017-Jul-21 06:30N 40°50' E 014°16'0 0.0
2017-Jul-21 05:09N 40°50' E 014°16'0 0.1
2017-Jul-21 05:00N 40°50' E 014°16'1 1.5
2017-Jul-21 04:30N 40°50' E 014°17'2 4.7
2017-Jul-21 04:00N 40°48' E 014°17'815.8
2017-Jul-21 03:31N 40°42' E 014°10'917.4
2017-Jul-21 03:00N 40°39' E 013°59'918.0
2017-Jul-21 02:31N 40°38' E 013°48'918.0
2017-Jul-21 02:00N 40°38' E 013°36'12215.8
2017-Jul-20 18:17N 42°03' E 011°38'416.5
2017-Jul-20 18:01N 42°06' E 011°43'3 5.6
2017-Jul-20 17:30N 42°06' E 011°46'20 1.3
2017-Jul-20 02:34N 42°05' E 011°19'120.3
2017-Jul-20 02:30N 42°06' E 011°18'1120.5
2017-Jul-20 01:59N 42°09' E 011°04'1519.8
2017-Jul-20 01:15N 42°16' E 010°46'519.6
2017-Jul-20 01:00N 42°18' E 010°41'1419.7
2017-Jul-20 00:17N 42°27' E 010°26'919.9
2017-Jul-19 23:49N 42°34' E 010°17'1019.9
2017-Jul-19 23:20N 42°40' E 010°07'720.1
2017-Jul-19 22:59N 42°43' E 009°59'1019.9
2017-Jul-19 22:30N 42°48' E 009°47'918.5
2017-Jul-19 22:00N 42°54' E 009°38'918.9
2017-Jul-19 21:30N 43°03' E 009°35'1019.0
2017-Jul-19 21:00N 43°12' E 009°31'918.9
2017-Jul-19 20:30N 43°21' E 009°31'1019.3
2017-Jul-19 20:00N 43°31' E 009°33'1019.7
2017-Jul-19 19:30N 43°40' E 009°40'1020.1
2017-Jul-19 19:00N 43°48' E 009°47'1019.8
2017-Jul-19 18:30N 43°57' E 009°53'815.4
2017-Jul-19 18:00N 44°05' E 009°51'2 3.2
2017-Jul-19 17:28N 44°06' E 009°50'0 0.0
2017-Jul-19 16:58N 44°06' E 009°50'0 0.0
2017-Jul-19 16:28N 44°06' E 009°50'0 0.0
2017-Jul-19 15:49N 44°06' E 009°50'0 0.0
2017-Jul-19 15:28N 44°06' E 009°50'0 0.0
2017-Jul-19 14:58N 44°06' E 009°50'0 0.0
2017-Jul-19 14:28N 44°06' E 009°50'0 0.0
2017-Jul-19 13:58N 44°06' E 009°50'0 0.0
2017-Jul-19 13:25N 44°06' E 009°50'0 0.0
2017-Jul-19 12:58N 44°06' E 009°50'0 0.0
2017-Jul-19 12:28N 44°06' E 009°50'0 0.0
2017-Jul-19 11:58N 44°06' E 009°50'0 0.0
2017-Jul-19 11:28N 44°06' E 009°50'0 0.0
2017-Jul-19 10:58N 44°06' E 009°50'0 0.0
2017-Jul-19 10:28N 44°06' E 009°50'0 0.0
2017-Jul-19 09:52N 44°06' E 009°50'0 0.0
2017-Jul-19 09:28N 44°06' E 009°50'0 0.0
2017-Jul-19 08:58N 44°06' E 009°50'0 0.0
2017-Jul-19 08:28N 44°06' E 009°50'0 0.0
2017-Jul-19 07:58N 44°06' E 009°50'0 0.0
2017-Jul-19 07:28N 44°06' E 009°50'0 0.0
2017-Jul-19 06:52N 44°06' E 009°50'0 0.0
2017-Jul-19 06:28N 44°06' E 009°50'0 0.0
2017-Jul-19 05:58N 44°06' E 009°50'0 0.0
2017-Jul-19 05:28N 44°06' E 009°50'0 0.0
2017-Jul-19 04:58N 44°06' E 009°50'0 0.7
2017-Jul-19 04:30N 44°06' E 009°50'3 5.1
2017-Jul-19 04:00N 44°04' E 009°51'5 9.6
2017-Jul-19 03:30N 43°60' E 009°55'611.1
2017-Jul-19 03:00N 43°58' E 009°47'510.8
2017-Jul-19 02:30N 43°56' E 009°41'511.0
2017-Jul-19 02:00N 43°54' E 009°33'611.2
2017-Jul-19 01:30N 43°52' E 009°26'611.4
2017-Jul-19 01:00N 43°50' E 009°19'611.6
2017-Jul-19 00:30N 43°48' E 009°11'611.4
2017-Jul-19 00:00N 43°46' E 009°04'612.9
2017-Jul-18 23:30N 43°44' E 008°55'612.2
2017-Jul-18 23:00N 43°42' E 008°47'611.7
2017-Jul-18 22:30N 43°40' E 008°40'611.3
2017-Jul-18 22:00N 43°38' E 008°32'612.5
2017-Jul-18 21:30N 43°38' E 008°23'612.4
2017-Jul-18 21:00N 43°37' E 008°15'612.1
2017-Jul-18 20:30N 43°36' E 008°07'611.8
2017-Jul-18 20:00N 43°34' E 007°59'612.0
2017-Jul-18 19:30N 43°32' E 007°51'25 1.7
2017-Jul-18 04:35N 43°40' E 007°19'2 7.8
2017-Jul-18 04:21N 43°38' E 007°18'411.2
2017-Jul-18 03:59N 43°34' E 007°17'611.7
2017-Jul-18 03:30N 43°29' E 007°16'611.7
2017-Jul-18 03:00N 43°23' E 007°15'611.7
2017-Jul-18 02:30N 43°17' E 007°13'611.7
2017-Jul-18 02:00N 43°13' E 007°09'611.7
2017-Jul-18 01:30N 43°08' E 007°04'611.8
2017-Jul-18 01:00N 43°03' E 006°59'611.9
2017-Jul-18 00:30N 42°58' E 006°54'611.9
2017-Jul-18 00:00N 42°54' E 006°49'611.9
2017-Jul-17 23:30N 42°50' E 006°43'611.9
2017-Jul-17 22:59N 42°47' E 006°36'2211.6
2017-Jul-17 21:06N 42°44' E 006°06'312.3
2017-Jul-17 20:51N 42°45' E 006°02'1513.1
2017-Jul-17 19:42N 42°49' E 005°42'413.1
2017-Jul-17 19:25N 42°50' E 005°38'713.0
2017-Jul-17 18:51N 42°53' E 005°29'2212.8
2017-Jul-17 17:09N 43°10' E 005°09'212.7
2017-Jul-17 17:00N 43°12' E 005°08'12 1.1
2017-Jul-17 06:07N 43°21' E 005°19'1 7.1
2017-Jul-17 05:59N 43°21' E 005°17'910.8
2017-Jul-17 05:09N 43°14' E 005°09'311.9
2017-Jul-17 04:54N 43°12' E 005°06'2414.0
2017-Jul-17 03:10N 42°53' E 004°46'413.7
2017-Jul-17 02:54N 42°50' E 004°43'2414.0
2017-Jul-17 01:10N 42°31' E 004°22'414.1
2017-Jul-17 00:55N 42°28' E 004°19'1313.9
2017-Jul-16 23:58N 42°18' E 004°08'1113.7
2017-Jul-16 23:10N 42°09' E 003°59'413.9
2017-Jul-16 22:55N 42°06' E 003°56'2514.1
2017-Jul-16 21:11N 41°48' E 003°34'414.0
2017-Jul-16 20:55N 41°45' E 003°31'814.0
2017-Jul-16 20:21N 41°40' E 003°24'514.1
2017-Jul-16 19:59N 41°36' E 003°18'1813.6
2017-Jul-16 18:39N 41°26' E 002°58'213.2
2017-Jul-16 18:30N 41°25' E 002°56'713.1
2017-Jul-16 18:00N 41°23' E 002°48'612.9
2017-Jul-16 17:30N 41°20' E 002°40'613.0
2017-Jul-16 17:00N 41°19' E 002°31'713.3
2017-Jul-16 16:29N 41°17' E 002°22'912.5
2017-Jul-16 15:47N 41°17' E 002°11'5 0.4
2017-Jul-16 03:27N 41°21' E 002°10'4 5.3
2017-Jul-16 02:39N 41°17' E 002°11'213.8
2017-Jul-16 02:30N 41°16' E 002°14'816.0
2017-Jul-16 02:00N 41°16' E 002°24'917.8
2017-Jul-16 01:30N 41°16' E 002°36'918.2
2017-Jul-16 01:00N 41°16' E 002°48'918.1
2017-Jul-16 00:30N 41°17' E 003°00'918.0
2017-Jul-16 00:00N 41°16' E 003°12'918.0
2017-Jul-15 23:30N 41°17' E 003°24'917.8
2017-Jul-15 23:00N 41°17' E 003°36'21616.8
2017-Jul-15 10:09N 41°19' E 008°24'417.3
2017-Jul-15 09:56N 41°19' E 008°29'25316.9
2017-Jul-14 18:57N 40°34' E 013°58'817.5
2017-Jul-14 18:30N 40°40' E 014°05'917.4
2017-Jul-14 18:00N 40°46' E 014°13'161 4.2
2017-Jul-13 03:19N 42°08' E 011°09'822.1
2017-Jul-13 02:58N 42°10' E 010°59'2921.2
2017-Jul-13 01:37N 42°27' E 010°27'1921.5
2017-Jul-13 00:43N 42°39' E 010°07'3720.7
2017-Jul-12 22:55N 43°08' E 009°34'921.9
2017-Jul-12 22:30N 43°16' E 009°30'1121.6
2017-Jul-12 21:59N 43°27' E 009°33'1021.1
2017-Jul-12 21:30N 43°37' E 009°38'918.1
2017-Jul-12 21:00N 43°45' E 009°44'917.9
2017-Jul-12 20:30N 43°53' E 009°50'816.2
2017-Jul-12 20:00N 44°00' E 009°53'0 0.6
2017-Jul-12 19:30N 44°01' E 009°53'612.0
2017-Jul-12 19:00N 43°55' E 009°52'611.2
2017-Jul-12 18:30N 43°49' E 009°49'816.4
2017-Jul-12 18:01N 43°57' E 009°52'713.9
2017-Jul-12 17:30N 44°04' E 009°51'2 4.1
2017-Jul-12 16:59N 44°06' E 009°50'0 0.0
2017-Jul-12 16:29N 44°06' E 009°50'0 0.0
2017-Jul-12 15:59N 44°06' E 009°50'0 0.0
2017-Jul-12 15:29N 44°06' E 009°50'0 0.0
2017-Jul-12 14:59N 44°06' E 009°50'0 0.0
2017-Jul-12 13:59N 44°06' E 009°50'0 0.0
2017-Jul-12 13:29N 44°06' E 009°50'0 0.0
2017-Jul-12 12:59N 44°06' E 009°50'0 0.0
2017-Jul-12 12:29N 44°06' E 009°50'0 0.0
2017-Jul-12 11:59N 44°06' E 009°50'0 0.0
2017-Jul-12 11:29N 44°06' E 009°50'0 0.0
2017-Jul-12 10:59N 44°06' E 009°50'0 0.0
2017-Jul-12 10:29N 44°06' E 009°50'0 0.0
2017-Jul-12 09:59N 44°06' E 009°50'0 0.0
2017-Jul-12 09:29N 44°06' E 009°50'0 0.0
2017-Jul-12 08:59N 44°06' E 009°50'0 0.0
2017-Jul-12 08:29N 44°06' E 009°50'0 0.0
2017-Jul-12 07:59N 44°06' E 009°50'0 0.0
2017-Jul-12 07:29N 44°06' E 009°50'0 0.0
2017-Jul-12 06:59N 44°06' E 009°50'0 0.0
2017-Jul-12 06:29N 44°06' E 009°50'0 0.0
2017-Jul-12 05:59N 44°06' E 009°50'0 0.0
2017-Jul-12 05:29N 44°06' E 009°50'0 0.0
2017-Jul-12 04:59N 44°06' E 009°50'0 0.9
2017-Jul-12 04:30N 44°06' E 009°50'4 6.7
2017-Jul-12 03:56N 44°03' E 009°53'4 9.1
2017-Jul-12 03:30N 43°59' E 009°55'611.6
2017-Jul-12 03:00N 43°57' E 009°47'611.6
2017-Jul-12 02:30N 43°55' E 009°40'612.0
2017-Jul-12 02:00N 43°53' E 009°32'612.0
2017-Jul-12 01:30N 43°51' E 009°24'611.9
2017-Jul-12 01:00N 43°49' E 009°17'611.5
2017-Jul-12 00:30N 43°47' E 009°09'611.5
2017-Jul-12 00:00N 43°45' E 009°02'611.7
2017-Jul-11 23:30N 43°44' E 008°54'611.7
2017-Jul-11 23:00N 43°42' E 008°46'611.8
2017-Jul-11 22:30N 43°40' E 008°38'611.8
2017-Jul-11 22:00N 43°39' E 008°30'  
Track history (hours):
 
Tides and Currents Weather Stations Pressure Air Temp Water Temp Dewpoint Dewpoint Depression Visibility Wind Speed Wind Dir Waves Ship Positions

Freedom of the Seas

Last reported at 2017-Jul-21 21:41 UTC. Time now 2017-Jul-22 12:38 UTC.
Position N 40°42' E 012°37'.

Length 339 m; draft 9 m.

Type: Passenger vessel. MMSI: 309906000.

Date/timePositionNaut miles runAvg speedWind from/ knotsBaromVisibWave heightAir tempDewpointWater temp
2017-Jul-21 21:41N 40°42' E 012°37'317.6
2017-Jul-21 21:30N 40°40' E 012°40'917.6
2017-Jul-21 21:00N 40°37' E 012°51'917.4
2017-Jul-21 20:30N 40°35' E 013°02'1117.4
2017-Jul-21 19:54N 40°34' E 013°16'717.5
2017-Jul-21 19:31N 40°34' E 013°25'917.4
2017-Jul-21 19:01N 40°34' E 013°37'917.4
2017-Jul-21 18:31N 40°34' E 013°48'917.4
2017-Jul-21 18:01N 40°36' E 013°59'917.3
2017-Jul-21 17:31N 40°40' E 014°09'816.6
2017-Jul-21 17:01N 40°47' E 014°15'3 6.3
2017-Jul-21 16:31N 40°50' E 014°16'0 0.0
2017-Jul-21 16:00N 40°50' E 014°16'0 0.0
2017-Jul-21 15:24N 40°50' E 014°16'0 0.0
2017-Jul-21 15:00N 40°50' E 014°16'0 0.0
2017-Jul-21 14:30N 40°50' E 014°16'0 0.0
2017-Jul-21 14:00N 40°50' E 014°16'0 0.0
2017-Jul-21 13:30N 40°50' E 014°16'0 0.0
2017-Jul-21 13:00N 40°50' E 014°16'0 0.0
2017-Jul-21 12:30N 40°50' E 014°16'0 0.0
2017-Jul-21 12:00N 40°50' E 014°16'0 0.0
2017-Jul-21 11:30N 40°50' E 014°16'0 0.0
2017-Jul-21 11:00N 40°50' E 014°16'0 0.0
2017-Jul-21 10:30N 40°50' E 014°16'0 0.0
2017-Jul-21 10:00N 40°50' E 014°16'0 0.0
2017-Jul-21 09:30N 40°50' E 014°16'0 0.0
2017-Jul-21 09:00N 40°50' E 014°16'0 0.0
2017-Jul-21 08:30N 40°50' E 014°16'0 0.0
2017-Jul-21 08:00N 40°50' E 014°16'0 0.0
2017-Jul-21 07:30N 40°50' E 014°16'0 0.0
2017-Jul-21 06:54N 40°50' E 014°16'0 0.0
2017-Jul-21 06:30N 40°50' E 014°16'0 0.0
2017-Jul-21 05:09N 40°50' E 014°16'0 0.1
2017-Jul-21 05:00N 40°50' E 014°16'1 1.5
2017-Jul-21 04:30N 40°50' E 014°17'2 4.7
2017-Jul-21 04:00N 40°48' E 014°17'815.8
2017-Jul-21 03:31N 40°42' E 014°10'917.4
2017-Jul-21 03:00N 40°39' E 013°59'918.0
2017-Jul-21 02:31N 40°38' E 013°48'918.0
2017-Jul-21 02:00N 40°38' E 013°36'12215.8
2017-Jul-20 18:17N 42°03' E 011°38'416.5
2017-Jul-20 18:01N 42°06' E 011°43'3 5.6
2017-Jul-20 17:30N 42°06' E 011°46'20 1.3
2017-Jul-20 02:34N 42°05' E 011°19'120.3
2017-Jul-20 02:30N 42°06' E 011°18'1120.5
2017-Jul-20 01:59N 42°09' E 011°04'1519.8
2017-Jul-20 01:15N 42°16' E 010°46'519.6
2017-Jul-20 01:00N 42°18' E 010°41'1419.7
2017-Jul-20 00:17N 42°27' E 010°26'919.9
2017-Jul-19 23:49N 42°34' E 010°17'1019.9
2017-Jul-19 23:20N 42°40' E 010°07'720.1
2017-Jul-19 22:59N 42°43' E 009°59'1019.9
2017-Jul-19 22:30N 42°48' E 009°47'918.5
2017-Jul-19 22:00N 42°54' E 009°38'918.9
2017-Jul-19 21:30N 43°03' E 009°35'1019.0
2017-Jul-19 21:00N 43°12' E 009°31'918.9
2017-Jul-19 20:30N 43°21' E 009°31'1019.3
2017-Jul-19 20:00N 43°31' E 009°33'1019.7
2017-Jul-19 19:30N 43°40' E 009°40'1020.1
2017-Jul-19 19:00N 43°48' E 009°47'1019.8
2017-Jul-19 18:30N 43°57' E 009°53'815.4
2017-Jul-19 18:00N 44°05' E 009°51'2 3.2
2017-Jul-19 17:28N 44°06' E 009°50'0 0.0
2017-Jul-19 16:58N 44°06' E 009°50'0 0.0
2017-Jul-19 16:28N 44°06' E 009°50'0 0.0
2017-Jul-19 15:49N 44°06' E 009°50'0 0.0
2017-Jul-19 15:28N 44°06' E 009°50'0 0.0
2017-Jul-19 14:58N 44°06' E 009°50'0 0.0
2017-Jul-19 14:28N 44°06' E 009°50'0 0.0
2017-Jul-19 13:58N 44°06' E 009°50'0 0.0
2017-Jul-19 13:25N 44°06' E 009°50'0 0.0
2017-Jul-19 12:58N 44°06' E 009°50'0 0.0
2017-Jul-19 12:28N 44°06' E 009°50'0 0.0
2017-Jul-19 11:58N 44°06' E 009°50'0 0.0
2017-Jul-19 11:28N 44°06' E 009°50'0 0.0
2017-Jul-19 10:58N 44°06' E 009°50'0 0.0
2017-Jul-19 10:28N 44°06' E 009°50'0 0.0
2017-Jul-19 09:52N 44°06' E 009°50'0 0.0
2017-Jul-19 09:28N 44°06' E 009°50'0 0.0
2017-Jul-19 08:58N 44°06' E 009°50'0 0.0
2017-Jul-19 08:28N 44°06' E 009°50'0 0.0
2017-Jul-19 07:58N 44°06' E 009°50'0 0.0
2017-Jul-19 07:28N 44°06' E 009°50'0 0.0
2017-Jul-19 06:52N 44°06' E 009°50'0 0.0
2017-Jul-19 06:28N 44°06' E 009°50'0 0.0
2017-Jul-19 05:58N 44°06' E 009°50'0 0.0
2017-Jul-19 05:28N 44°06' E 009°50'0 0.0
2017-Jul-19 04:58N 44°06' E 009°50'0 0.7
2017-Jul-19 04:30N 44°06' E 009°50'3 5.1
2017-Jul-19 04:00N 44°04' E 009°51'5 9.6
2017-Jul-19 03:30N 43°60' E 009°55'611.1
2017-Jul-19 03:00N 43°58' E 009°47'510.8
2017-Jul-19 02:30N 43°56' E 009°41'511.0
2017-Jul-19 02:00N 43°54' E 009°33'611.2
2017-Jul-19 01:30N 43°52' E 009°26'611.4
2017-Jul-19 01:00N 43°50' E 009°19'611.6
2017-Jul-19 00:30N 43°48' E 009°11'611.4
2017-Jul-19 00:00N 43°46' E 009°04'612.9
2017-Jul-18 23:30N 43°44' E 008°55'612.2
2017-Jul-18 23:00N 43°42' E 008°47'611.7
2017-Jul-18 22:30N 43°40' E 008°40'611.3
2017-Jul-18 22:00N 43°38' E 008°32'612.5
2017-Jul-18 21:30N 43°38' E 008°23'612.4
2017-Jul-18 21:00N 43°37' E 008°15'612.1
2017-Jul-18 20:30N 43°36' E 008°07'611.8
2017-Jul-18 20:00N 43°34' E 007°59'612.0
2017-Jul-18 19:30N 43°32' E 007°51'25 1.7
2017-Jul-18 04:35N 43°40' E 007°19'2 7.8
2017-Jul-18 04:21N 43°38' E 007°18'411.2
2017-Jul-18 03:59N 43°34' E 007°17'611.7
2017-Jul-18 03:30N 43°29' E 007°16'611.7
2017-Jul-18 03:00N 43°23' E 007°15'611.7
2017-Jul-18 02:30N 43°17' E 007°13'611.7
2017-Jul-18 02:00N 43°13' E 007°09'611.7
2017-Jul-18 01:30N 43°08' E 007°04'611.8
2017-Jul-18 01:00N 43°03' E 006°59'611.9
2017-Jul-18 00:30N 42°58' E 006°54'611.9
2017-Jul-18 00:00N 42°54' E 006°49'611.9
2017-Jul-17 23:30N 42°50' E 006°43'611.9
2017-Jul-17 22:59N 42°47' E 006°36'2211.6
2017-Jul-17 21:06N 42°44' E 006°06'312.3
2017-Jul-17 20:51N 42°45' E 006°02'1513.1
2017-Jul-17 19:42N 42°49' E 005°42'413.1
2017-Jul-17 19:25N 42°50' E 005°38'713.0
2017-Jul-17 18:51N 42°53' E 005°29'2212.8
2017-Jul-17 17:09N 43°10' E 005°09'212.7
2017-Jul-17 17:00N 43°12' E 005°08'12 1.1
2017-Jul-17 06:07N 43°21' E 005°19'1 7.1
2017-Jul-17 05:59N 43°21' E 005°17'910.8
2017-Jul-17 05:09N 43°14' E 005°09'311.9
2017-Jul-17 04:54N 43°12' E 005°06'2414.0
2017-Jul-17 03:10N 42°53' E 004°46'413.7
2017-Jul-17 02:54N 42°50' E 004°43'2414.0
2017-Jul-17 01:10N 42°31' E 004°22'414.1
2017-Jul-17 00:55N 42°28' E 004°19'1313.9
2017-Jul-16 23:58N 42°18' E 004°08'1113.7
2017-Jul-16 23:10N 42°09' E 003°59'413.9
2017-Jul-16 22:55N 42°06' E 003°56'2514.1
2017-Jul-16 21:11N 41°48' E 003°34'414.0
2017-Jul-16 20:55N 41°45' E 003°31'814.0
2017-Jul-16 20:21N 41°40' E 003°24'514.1
2017-Jul-16 19:59N 41°36' E 003°18'1813.6
2017-Jul-16 18:39N 41°26' E 002°58'213.2
2017-Jul-16 18:30N 41°25' E 002°56'713.1
2017-Jul-16 18:00N 41°23' E 002°48'612.9
2017-Jul-16 17:30N 41°20' E 002°40'613.0
2017-Jul-16 17:00N 41°19' E 002°31'713.3
2017-Jul-16 16:29N 41°17' E 002°22'912.5
2017-Jul-16 15:47N 41°17' E 002°11'5 0.4
2017-Jul-16 03:27N 41°21' E 002°10'4 5.3
2017-Jul-16 02:39N 41°17' E 002°11'213.8
2017-Jul-16 02:30N 41°16' E 002°14'816.0
2017-Jul-16 02:00N 41°16' E 002°24'917.8
2017-Jul-16 01:30N 41°16' E 002°36'918.2
2017-Jul-16 01:00N 41°16' E 002°48'918.1
2017-Jul-16 00:30N 41°17' E 003°00'918.0
2017-Jul-16 00:00N 41°16' E 003°12'918.0
2017-Jul-15 23:30N 41°17' E 003°24'917.8
2017-Jul-15 23:00N 41°17' E 003°36'21616.8
2017-Jul-15 10:09N 41°19' E 008°24'417.3
2017-Jul-15 09:56N 41°19' E 008°29'25316.9
2017-Jul-14 18:57N 40°34' E 013°58'817.5
2017-Jul-14 18:30N 40°40' E 014°05'917.4
2017-Jul-14 18:00N 40°46' E 014°13'161 4.2
2017-Jul-13 03:19N 42°08' E 011°09'822.1
2017-Jul-13 02:58N 42°10' E 010°59'2921.2
2017-Jul-13 01:37N 42°27' E 010°27'1921.5
2017-Jul-13 00:43N 42°39' E 010°07'3720.7
2017-Jul-12 22:55N 43°08' E 009°34'921.9
2017-Jul-12 22:30N 43°16' E 009°30'1121.6
2017-Jul-12 21:59N 43°27' E 009°33'1021.1
2017-Jul-12 21:30N 43°37' E 009°38'918.1
2017-Jul-12 21:00N 43°45' E 009°44'917.9
2017-Jul-12 20:30N 43°53' E 009°50'816.2
2017-Jul-12 20:00N 44°00' E 009°53'0 0.6
2017-Jul-12 19:30N 44°01' E 009°53'612.0
2017-Jul-12 19:00N 43°55' E 009°52'611.2
2017-Jul-12 18:30N 43°49' E 009°49'816.4
2017-Jul-12 18:01N 43°57' E 009°52'713.9
2017-Jul-12 17:30N 44°04' E 009°51'2 4.1
2017-Jul-12 16:59N 44°06' E 009°50'0 0.0
2017-Jul-12 16:29N 44°06' E 009°50'0 0.0
2017-Jul-12 15:59N 44°06' E 009°50'0 0.0
2017-Jul-12 15:29N 44°06' E 009°50'0 0.0
2017-Jul-12 14:59N 44°06' E 009°50'0 0.0
2017-Jul-12 13:59N 44°06' E 009°50'0 0.0
2017-Jul-12 13:29N 44°06' E 009°50'0 0.0
2017-Jul-12 12:59N 44°06' E 009°50'0 0.0
2017-Jul-12 12:29N 44°06' E 009°50'0 0.0
2017-Jul-12 11:59N 44°06' E 009°50'0 0.0
2017-Jul-12 11:29N 44°06' E 009°50'0 0.0
2017-Jul-12 10:59N 44°06' E 009°50'0 0.0
2017-Jul-12 10:29N 44°06' E 009°50'0 0.0
2017-Jul-12 09:59N 44°06' E 009°50'0 0.0
2017-Jul-12 09:29N 44°06' E 009°50'0 0.0
2017-Jul-12 08:59N 44°06' E 009°50'0 0.0
2017-Jul-12 08:29N 44°06' E 009°50'0 0.0
2017-Jul-12 07:59N 44°06' E 009°50'0 0.0
2017-Jul-12 07:29N 44°06' E 009°50'0 0.0
2017-Jul-12 06:59N 44°06' E 009°50'0 0.0
2017-Jul-12 06:29N 44°06' E 009°50'0 0.0
2017-Jul-12 05:59N 44°06' E 009°50'0 0.0
2017-Jul-12 05:29N 44°06' E 009°50'0 0.0
2017-Jul-12 04:59N 44°06' E 009°50'0 0.9
2017-Jul-12 04:30N 44°06' E 009°50'4 6.7
2017-Jul-12 03:56N 44°03' E 009°53'4 9.1
2017-Jul-12 03:30N 43°59' E 009°55'611.6
2017-Jul-12 03:00N 43°57' E 009°47'611.6
2017-Jul-12 02:30N 43°55' E 009°40'612.0
2017-Jul-12 02:00N 43°53' E 009°32'612.0
2017-Jul-12 01:30N 43°51' E 009°24'611.9
2017-Jul-12 01:00N 43°49' E 009°17'611.5
2017-Jul-12 00:30N 43°47' E 009°09'611.5
2017-Jul-12 00:00N 43°45' E 009°02'611.7
2017-Jul-11 23:30N 43°44' E 008°54'611.7
2017-Jul-11 23:00N 43°42' E 008°46'611.8
2017-Jul-11 22:30N 43°40' E 008°38'611.8
2017-Jul-11 22:00N 43°39' E 008°30'  

Dump ship's entire track history